Terminal Aerodrome Forecast
Issued by NWS

Home | Current Version | Previous Version | Text Only | Print | Product List | Glossary On
Versions: 1 2 3 4 5 6 7 8 9 10 11 12 13 14 15 16
595
FTUS41 KBGM 240841 AAA
TAFRME
TAF AMD
KRME 240841Z 2409/2506 VRB03KT P6SM OVC050
     FM241400 14005KT P6SM BKN050
     FM241700 17007KT P6SM SCT250
     FM242300 12008KT P6SM BKN250=

USA.gov is the U.S. government's official web portal to all federal, state and local government web resources and services.